createdAt,value
2022-11-09T00:00:50.647Z,3.67
2022-11-09T00:03:20.266Z,3.35
2022-11-09T00:05:56.349Z,2.90
2022-11-09T00:08:24.285Z,3.03
2022-11-09T00:10:52.343Z,2.97
2022-11-09T00:13:20.502Z,4.13
2022-11-09T00:15:48.627Z,3.00
2022-11-09T00:18:16.477Z,2.75
2022-11-09T00:20:48.003Z,2.83
2022-11-09T00:23:17.334Z,2.90
2022-11-09T00:25:45.680Z,2.90
2022-11-09T00:28:13.555Z,3.03
2022-11-09T00:30:42.304Z,2.28
2022-11-09T00:33:12.164Z,2.80
2022-11-09T00:35:40.325Z,2.65
2022-11-09T00:38:09.597Z,3.05
2022-11-09T00:40:37.543Z,2.95
2022-11-09T00:43:05.478Z,2.92
2022-11-09T00:45:33.539Z,2.70
2022-11-09T00:48:01.456Z,2.60
2022-11-09T00:50:30.607Z,2.55
2022-11-09T00:52:58.495Z,2.38
2022-11-09T00:55:28.091Z,2.58
2022-11-09T00:57:56.009Z,3.10
2022-11-09T01:00:25.153Z,2.08
2022-11-09T01:02:53.487Z,2.85
2022-11-09T01:05:21.663Z,2.60
2022-11-09T01:07:49.610Z,2.28
2022-11-09T01:10:17.671Z,2.55
2022-11-09T01:12:47.001Z,3.03
2022-11-09T01:15:14.839Z,2.80
2022-11-09T01:17:42.724Z,2.53
2022-11-09T01:20:11.912Z,2.58
2022-11-09T01:22:39.811Z,2.78
2022-11-09T01:25:08.550Z,2.85
2022-11-09T01:27:36.853Z,2.83
2022-11-09T01:30:07.136Z,2.60
2022-11-09T01:32:35.062Z,2.40
2022-11-09T01:35:02.967Z,2.45
2022-11-09T01:37:30.872Z,3.00
2022-11-09T01:39:58.769Z,2.70
2022-11-09T01:42:27.460Z,2.28
2022-11-09T01:45:26.197Z,2.80
2022-11-09T01:47:59.216Z,2.90
2022-11-09T01:50:35.417Z,3.10
2022-11-09T01:53:07.467Z,2.42
2022-11-09T01:55:35.561Z,3.15
2022-11-09T01:58:06.953Z,2.22
2022-11-09T02:00:39.013Z,3.00
2022-11-09T02:03:10.728Z,2.80
2022-11-09T02:05:41.670Z,2.78
2022-11-09T02:08:11.079Z,2.88
2022-11-09T02:10:44.807Z,2.88
2022-11-09T02:13:15.789Z,2.65
2022-11-09T02:15:46.110Z,2.95
2022-11-09T02:18:14.240Z,3.00
2022-11-09T02:20:49.954Z,2.90
2022-11-09T02:23:18.547Z,2.85
2022-11-09T02:25:50.334Z,3.05
2022-11-09T02:28:18.835Z,3.20
2022-11-09T02:30:50.050Z,2.80
2022-11-09T02:33:18.276Z,3.00
2022-11-09T02:35:47.734Z,3.35
2022-11-09T02:38:16.188Z,3.40
2022-11-09T02:40:47.533Z,3.55
2022-11-09T02:43:17.921Z,3.60
2022-11-09T02:45:46.157Z,3.42
2022-11-09T02:48:14.099Z,4.03
2022-11-09T02:50:42.006Z,3.65
2022-11-09T02:53:11.368Z,3.42
2022-11-09T02:55:39.247Z,3.60
2022-11-09T02:58:07.197Z,3.35
2022-11-09T03:00:35.064Z,3.03
2022-11-09T03:03:03.324Z,3.30
2022-11-09T03:05:31.231Z,3.05
2022-11-09T03:08:02.321Z,3.92
2022-11-09T03:10:31.658Z,4.00
2022-11-09T03:12:59.590Z,4.00
2022-11-09T03:15:27.524Z,4.38
2022-11-09T03:17:55.405Z,5.05
2022-11-09T03:20:23.342Z,4.40
2022-11-09T03:22:51.236Z,4.35
2022-11-09T03:25:19.169Z,4.82
2022-11-09T03:27:48.426Z,4.65
2022-11-09T03:30:18.954Z,4.78
2022-11-09T03:32:50.423Z,4.93
2022-11-09T03:35:18.711Z,4.82
2022-11-09T03:37:46.642Z,5.32
2022-11-09T03:40:14.717Z,4.90
2022-11-09T03:42:45.715Z,5.70
2022-11-09T03:45:16.562Z,4.95
2022-11-09T03:47:45.410Z,4.82
2022-11-09T03:50:14.674Z,5.00
2022-11-09T03:52:45.611Z,4.07
2022-11-09T03:55:14.599Z,3.60
2022-11-09T03:57:42.608Z,4.22
2022-11-09T04:00:11.642Z,4.30
2022-11-09T04:02:41.108Z,3.67
2022-11-09T04:05:10.590Z,3.85
2022-11-09T04:07:38.828Z,4.88
2022-11-09T04:10:08.461Z,4.10
2022-11-09T04:12:36.381Z,4.10
2022-11-09T04:15:04.545Z,3.95
2022-11-09T04:17:32.519Z,4.22
2022-11-09T04:20:01.926Z,4.78
2022-11-09T04:22:29.822Z,4.95
2022-11-09T04:24:57.717Z,4.65
2022-11-09T04:27:25.660Z,5.30
2022-11-09T04:29:53.584Z,5.43
2022-11-09T04:32:21.509Z,5.20
2022-11-09T04:34:49.420Z,4.40
2022-11-09T04:37:18.663Z,4.75
2022-11-09T04:39:46.539Z,4.93
2022-11-09T04:42:14.474Z,5.35
2022-11-09T04:44:42.365Z,5.90
2022-11-09T04:47:10.236Z,5.15
2022-11-09T04:49:38.123Z,5.63
2022-11-09T04:52:06.258Z,5.78
2022-11-09T04:54:35.529Z,5.80
2022-11-09T04:57:03.465Z,5.72
2022-11-09T04:59:31.402Z,5.60
2022-11-09T05:01:59.309Z,6.20
2022-11-09T05:04:27.194Z,7.10
2022-11-09T05:06:55.158Z,5.15
2022-11-09T05:09:23.050Z,6.45
2022-11-09T05:11:52.827Z,6.22
2022-11-09T05:14:20.769Z,6.18
2022-11-09T05:16:48.781Z,6.55
2022-11-09T05:19:16.650Z,7.45
2022-11-09T05:21:44.576Z,6.18
2022-11-09T05:24:11.608Z,7.25
2022-11-09T05:26:41.477Z,6.93
2022-11-09T05:29:12.636Z,7.45
2022-11-09T05:31:42.018Z,6.43
2022-11-09T05:34:14.112Z,6.25
2022-11-09T05:36:42.045Z,5.57
2022-11-09T05:39:10.162Z,6.28
2022-11-09T05:41:38.089Z,5.97
2022-11-09T05:44:06.128Z,6.63
2022-11-09T05:46:35.344Z,5.63
2022-11-09T05:49:03.302Z,5.38
2022-11-09T05:51:31.215Z,5.68
2022-11-09T05:53:59.084Z,5.30
2022-11-09T05:56:27.114Z,5.65
2022-11-09T05:58:54.998Z,5.72
2022-11-09T06:01:22.900Z,5.18
2022-11-09T06:03:54.976Z,5.30
2022-11-09T06:06:22.933Z,5.40
2022-11-09T06:08:51.026Z,5.25
2022-11-09T06:11:23.992Z,5.20
2022-11-09T06:13:53.174Z,5.15
2022-11-09T06:16:21.395Z,4.65
2022-11-09T06:18:49.326Z,5.50
2022-11-09T06:21:18.921Z,5.45
2022-11-09T06:23:46.836Z,5.18
2022-11-09T06:26:14.838Z,5.10
2022-11-09T06:28:43.413Z,5.60
2022-11-09T06:31:15.044Z,5.40
2022-11-09T06:33:43.213Z,5.70
2022-11-09T06:36:11.931Z,5.43
2022-11-09T06:38:41.388Z,5.63
2022-11-09T06:41:10.596Z,5.25
2022-11-09T06:43:38.515Z,5.75
2022-11-09T06:46:07.557Z,5.30
2022-11-09T06:48:35.417Z,5.45
2022-11-09T06:51:03.963Z,5.85
2022-11-09T06:53:33.399Z,5.55
2022-11-09T06:56:04.068Z,5.50
2022-11-09T06:58:32.741Z,5.28
2022-11-09T07:01:01.092Z,5.38
2022-11-09T07:03:29.005Z,5.18
2022-11-09T07:05:56.884Z,5.13
2022-11-09T07:08:24.769Z,5.70
2022-11-09T07:10:52.810Z,5.72
2022-11-09T07:13:22.396Z,4.70
2022-11-09T07:15:55.413Z,5.22
2022-11-09T07:18:23.335Z,5.80
2022-11-09T07:20:51.496Z,5.75
2022-11-09T07:23:20.197Z,6.15
2022-11-09T07:25:48.342Z,5.95
2022-11-09T07:28:16.745Z,6.97
2022-11-09T07:30:46.043Z,5.97
2022-11-09T07:33:15.870Z,6.65
2022-11-09T07:35:43.811Z,6.45
2022-11-09T07:38:11.712Z,6.75
2022-11-09T07:40:40.720Z,7.60
2022-11-09T07:43:09.150Z,6.95
2022-11-09T07:45:37.182Z,5.68
2022-11-09T07:48:08.451Z,6.40
2022-11-09T07:50:37.269Z,6.20
2022-11-09T07:53:07.079Z,5.55
2022-11-09T07:55:36.300Z,4.88
2022-11-09T07:58:06.187Z,5.10
2022-11-09T08:00:35.963Z,5.60
2022-11-09T08:03:04.221Z,4.93
2022-11-09T08:05:34.424Z,4.20
2022-11-09T08:08:05.285Z,4.50
2022-11-09T08:10:34.653Z,3.88
2022-11-09T08:13:04.602Z,3.50
2022-11-09T08:15:33.156Z,3.95
2022-11-09T08:18:02.444Z,3.33
2022-11-09T08:20:31.039Z,3.90
2022-11-09T08:23:03.949Z,3.60
2022-11-09T08:25:34.122Z,3.50
2022-11-09T08:28:03.300Z,3.58
2022-11-09T08:30:31.630Z,3.80
2022-11-09T08:33:00.727Z,3.75
2022-11-09T08:35:29.425Z,3.60
2022-11-09T08:38:00.800Z,3.15
2022-11-09T08:40:30.862Z,2.88
2022-11-09T08:43:03.936Z,3.08
2022-11-09T08:45:34.304Z,2.35
2022-11-09T08:48:03.030Z,2.00
2022-11-09T08:50:32.070Z,1.92
2022-11-09T08:53:01.114Z,1.80
2022-11-09T08:55:31.227Z,1.88
2022-11-09T08:58:01.126Z,1.77
2022-11-09T09:00:29.916Z,1.40
2022-11-09T09:02:57.939Z,1.40
2022-11-09T09:05:26.531Z,1.40
2022-11-09T09:07:54.381Z,1.30
2022-11-09T09:10:22.485Z,1.27
2022-11-09T09:12:51.746Z,1.27
2022-11-09T09:15:19.847Z,1.10
2022-11-09T09:17:47.865Z,1.20
2022-11-09T09:20:17.130Z,0.95
2022-11-09T09:22:45.267Z,0.90
2022-11-09T09:25:13.162Z,1.25
2022-11-09T09:27:41.056Z,1.30
2022-11-09T09:30:11.633Z,1.20
2022-11-09T09:32:39.661Z,1.60
2022-11-09T09:35:08.212Z,1.77
2022-11-09T09:37:36.259Z,2.05
2022-11-09T09:40:04.607Z,1.83
2022-11-09T09:42:36.214Z,2.20
2022-11-09T09:45:08.856Z,2.13
2022-11-09T09:47:50.443Z,2.22
2022-11-09T09:50:22.312Z,2.30
2022-11-09T09:53:22.037Z,2.20
2022-11-09T09:55:46.200Z,2.30
2022-11-09T09:58:17.638Z,2.30
2022-11-09T10:00:46.273Z,2.10
2022-11-09T10:03:19.587Z,2.20
2022-11-09T10:05:56.121Z,2.70
2022-11-09T10:08:32.000Z,3.05
2022-11-09T10:11:13.048Z,2.67
2022-11-09T10:13:57.171Z,2.53
2022-11-09T10:16:29.913Z,2.20
2022-11-09T10:19:24.239Z,3.22
2022-11-09T10:21:59.254Z,2.80
2022-11-09T10:24:58.598Z,2.38
2022-11-09T10:27:35.318Z,2.53
2022-11-09T10:30:08.681Z,2.47
2022-11-09T10:32:36.776Z,2.47
2022-11-09T10:35:16.444Z,2.70
2022-11-09T10:37:46.599Z,2.50
2022-11-09T10:40:20.735Z,2.90
2022-11-09T10:42:51.284Z,2.33
2022-11-09T10:45:28.078Z,2.70
2022-11-09T10:47:56.227Z,2.58
2022-11-09T10:50:30.876Z,2.65
2022-11-09T10:53:15.468Z,2.10
2022-11-09T10:55:52.492Z,2.50
2022-11-09T10:58:29.436Z,2.60
2022-11-09T11:01:06.674Z,2.60
2022-11-09T11:03:38.206Z,2.40
2022-11-09T11:06:13.123Z,2.40
2022-11-09T11:08:43.192Z,2.03
2022-11-09T11:11:38.344Z,2.53
2022-11-09T11:14:22.458Z,2.65
2022-11-09T11:16:52.958Z,1.98
2022-11-09T11:19:32.043Z,2.47
2022-11-09T11:22:21.762Z,2.05
2022-11-09T11:24:55.631Z,2.67
2022-11-09T11:27:28.578Z,2.38
2022-11-09T11:30:04.726Z,2.30
2022-11-09T11:32:32.775Z,2.03
2022-11-09T11:35:01.880Z,2.38
2022-11-09T11:37:46.877Z,2.67
2022-11-09T11:40:21.313Z,2.75
2022-11-09T11:43:27.025Z,2.10
2022-11-09T11:46:02.721Z,3.20
2022-11-09T11:48:55.126Z,2.85
2022-11-09T11:51:28.370Z,2.60
2022-11-09T11:54:10.194Z,2.30
2022-11-09T11:56:44.503Z,1.88
2022-11-09T11:59:46.192Z,2.45
2022-11-09T12:02:36.654Z,2.30
2022-11-09T12:05:29.432Z,2.10
2022-11-09T12:08:03.723Z,2.35
2022-11-09T12:10:45.792Z,2.20
2022-11-09T12:13:27.067Z,2.40
2022-11-09T12:16:00.758Z,1.80
2022-11-09T12:18:40.181Z,2.00
2022-11-09T12:21:16.612Z,2.08
2022-11-09T12:24:12.174Z,1.80
2022-11-09T12:27:33.775Z,1.95
2022-11-09T12:30:02.079Z,2.10
2022-11-09T12:32:45.362Z,1.60
2022-11-09T12:35:20.796Z,2.15
2022-11-09T12:37:54.334Z,2.00
2022-11-09T12:40:25.278Z,1.83
2022-11-09T12:43:00.257Z,2.00
2022-11-09T12:45:32.628Z,1.75
2022-11-09T12:48:05.875Z,2.00
2022-11-09T12:50:34.926Z,2.30
2022-11-09T12:53:05.233Z,1.92
2022-11-09T12:55:42.474Z,1.95
2022-11-09T12:58:23.494Z,2.07
2022-11-09T13:00:54.966Z,1.85
2022-11-09T13:03:28.706Z,2.70
2022-11-09T13:06:17.916Z,2.45
2022-11-09T13:08:58.440Z,2.10
2022-11-09T13:11:38.866Z,1.65
2022-11-09T13:14:35.300Z,2.28
2022-11-09T13:17:24.311Z,2.30
2022-11-09T13:19:56.504Z,2.03
2022-11-09T13:23:01.575Z,2.28
2022-11-09T13:25:50.895Z,2.03
2022-11-09T13:28:44.275Z,2.47
2022-11-09T13:31:13.529Z,1.95
2022-11-09T13:33:42.265Z,1.80
2022-11-09T13:36:20.325Z,2.50
2022-11-09T13:39:27.454Z,2.38
2022-11-09T13:41:55.414Z,2.55
2022-11-09T13:44:27.160Z,2.55
2022-11-09T13:46:57.284Z,2.80
2022-11-09T13:49:52.492Z,1.90
2022-11-09T13:52:49.743Z,2.03
2022-11-09T13:55:26.815Z,3.80
2022-11-09T13:57:56.685Z,2.42
2022-11-09T14:00:26.615Z,1.88
2022-11-09T14:03:02.658Z,2.10
2022-11-09T14:05:33.602Z,2.70
2022-11-09T14:08:04.249Z,2.67
2022-11-09T14:10:49.528Z,2.60
2022-11-09T14:13:38.829Z,2.45
2022-11-09T14:16:15.553Z,2.47
2022-11-09T14:18:55.205Z,2.85
2022-11-09T14:21:35.455Z,2.45
2022-11-09T14:24:04.373Z,2.15
2022-11-09T14:26:32.348Z,2.58
2022-11-09T14:29:00.241Z,2.45
2022-11-09T14:31:30.835Z,2.42
2022-11-09T14:34:04.704Z,2.22
2022-11-09T14:36:35.956Z,2.17
2022-11-09T14:39:06.134Z,2.13
2022-11-09T14:41:34.518Z,2.75
2022-11-09T14:44:02.519Z,1.95
2022-11-09T14:46:32.403Z,2.40
2022-11-09T14:49:01.898Z,2.38
2022-11-09T14:51:34.360Z,2.53
2022-11-09T14:54:04.012Z,2.75
2022-11-09T14:56:33.907Z,3.05
2022-11-09T14:59:02.734Z,2.85
2022-11-09T15:01:30.845Z,3.30
2022-11-09T15:04:11.258Z,2.78
2022-11-09T15:06:48.923Z,2.42
2022-11-09T15:09:20.035Z,2.00
2022-11-09T15:11:49.260Z,2.20
2022-11-09T15:14:26.362Z,2.42
2022-11-09T15:17:00.459Z,2.35
2022-11-09T15:19:31.585Z,2.28
2022-11-09T15:22:01.213Z,2.47
2022-11-09T15:24:30.455Z,2.72
2022-11-09T15:26:58.876Z,3.13
2022-11-09T15:29:39.661Z,2.78
2022-11-09T15:32:16.474Z,2.75
2022-11-09T15:34:56.894Z,2.33
2022-11-09T15:37:29.337Z,2.45
2022-11-09T15:39:58.669Z,2.50
2022-11-09T15:42:27.801Z,2.53
2022-11-09T15:44:57.991Z,3.38
2022-11-09T15:47:31.521Z,3.00
2022-11-09T15:49:59.964Z,2.70
2022-11-09T15:52:29.621Z,1.92
2022-11-09T15:54:57.690Z,2.08
2022-11-09T15:57:25.610Z,1.90
2022-11-09T15:59:53.559Z,2.00
2022-11-09T16:02:21.438Z,1.85
2022-11-09T16:04:49.456Z,1.90
2022-11-09T16:07:18.229Z,2.10
2022-11-09T16:09:47.486Z,1.48
2022-11-09T16:12:15.409Z,2.10
2022-11-09T16:14:43.258Z,1.70
2022-11-09T16:17:11.127Z,1.55
2022-11-09T16:19:39.634Z,1.83
2022-11-09T16:22:08.463Z,2.22
2022-11-09T16:24:36.742Z,1.38
2022-11-09T16:27:12.838Z,2.50
2022-11-09T16:29:50.267Z,2.13
2022-11-09T16:32:18.211Z,2.22
2022-11-09T16:34:57.792Z,2.05
2022-11-09T16:37:39.082Z,2.95
2022-11-09T16:40:10.630Z,3.50
2022-11-09T16:42:40.097Z,2.92
2022-11-09T16:45:11.317Z,2.53
2022-11-09T16:47:45.146Z,2.80
2022-11-09T16:50:13.715Z,2.53
2022-11-09T16:52:41.646Z,2.42
2022-11-09T16:55:10.638Z,2.05
2022-11-09T16:57:39.882Z,2.80
2022-11-09T17:00:09.365Z,3.13
2022-11-09T17:02:37.274Z,3.47
2022-11-09T17:05:05.896Z,3.75
2022-11-09T17:07:42.100Z,3.40
2022-11-09T17:10:11.016Z,3.78
2022-11-09T17:12:40.406Z,3.28
2022-11-09T17:15:09.538Z,3.80
2022-11-09T17:17:37.472Z,4.13
2022-11-09T17:20:07.105Z,4.45
2022-11-09T17:22:35.014Z,5.40
2022-11-09T17:25:03.074Z,6.18
2022-11-09T17:27:30.955Z,6.35
2022-11-09T17:30:00.253Z,5.97
2022-11-09T17:32:28.258Z,5.18
2022-11-09T17:34:56.163Z,5.47
2022-11-09T17:37:24.121Z,5.32
2022-11-09T17:39:51.998Z,4.47
2022-11-09T17:42:19.884Z,4.35
2022-11-09T17:44:47.781Z,5.18
2022-11-09T17:47:16.979Z,4.70
2022-11-09T17:49:44.868Z,4.75
2022-11-09T17:52:12.743Z,4.93
2022-11-09T17:54:40.695Z,4.15
2022-11-09T17:57:08.606Z,4.25
2022-11-09T17:59:36.565Z,4.70
2022-11-09T18:02:04.487Z,4.00
2022-11-09T18:04:33.773Z,4.28
2022-11-09T18:07:01.676Z,4.32
2022-11-09T18:09:44.962Z,4.15
2022-11-09T18:12:13.096Z,4.53
2022-11-09T18:14:41.002Z,3.55
2022-11-09T18:17:08.887Z,3.65
2022-11-09T18:19:38.217Z,3.70
2022-11-09T18:22:09.967Z,3.63
2022-11-09T18:24:40.529Z,3.13
2022-11-09T18:27:08.407Z,3.00
2022-11-09T18:29:36.285Z,2.80
2022-11-09T18:32:04.237Z,2.90
2022-11-09T18:34:32.168Z,3.45
2022-11-09T18:37:01.344Z,3.20
2022-11-09T18:39:29.198Z,3.58
2022-11-09T18:42:00.215Z,2.95
2022-11-09T18:44:28.067Z,3.40
2022-11-09T18:46:59.467Z,3.22
2022-11-09T18:49:30.056Z,2.88
2022-11-09T18:51:59.043Z,4.10
2022-11-09T18:54:28.506Z,3.60
2022-11-09T18:56:56.357Z,4.07
2022-11-09T18:59:24.266Z,3.88
2022-11-09T19:01:52.435Z,3.63
2022-11-09T19:04:20.453Z,3.92
2022-11-09T19:06:48.641Z,3.15
2022-11-09T19:09:35.221Z,3.33
2022-11-09T19:12:08.037Z,3.45
2022-11-09T19:14:40.779Z,4.95
2022-11-09T19:17:11.982Z,3.17
2022-11-09T19:19:39.928Z,3.50
2022-11-09T19:22:16.770Z,4.05
2022-11-09T19:24:45.301Z,2.95
2022-11-09T19:27:14.618Z,3.38
2022-11-09T19:29:42.550Z,3.42
2022-11-09T19:32:10.683Z,2.50
2022-11-09T19:34:38.587Z,2.13
2022-11-09T19:37:06.477Z,2.22
2022-11-09T19:39:37.069Z,2.97
2022-11-09T19:42:07.271Z,2.33
2022-11-09T19:44:36.517Z,2.63
2022-11-09T19:47:04.411Z,2.00
2022-11-09T19:49:32.460Z,1.90
2022-11-09T19:52:00.464Z,2.20
2022-11-09T19:54:28.368Z,1.92
2022-11-09T19:56:56.419Z,2.10
2022-11-09T19:59:24.314Z,1.58
2022-11-09T20:01:53.520Z,1.50
2022-11-09T20:04:21.393Z,1.70
2022-11-09T20:06:49.316Z,2.47
2022-11-09T20:09:17.197Z,2.00
2022-11-09T20:12:02.883Z,1.95
2022-11-09T20:14:30.751Z,1.42
2022-11-09T20:17:03.385Z,1.35
2022-11-09T20:19:31.697Z,1.15
2022-11-09T20:21:59.645Z,1.30
2022-11-09T20:24:27.597Z,1.27
2022-11-09T20:26:55.589Z,1.23
2022-11-09T20:29:23.678Z,1.77
2022-11-09T20:31:51.658Z,1.50
2022-11-09T20:34:20.891Z,1.10
2022-11-09T20:36:48.873Z,1.30
2022-11-09T20:39:16.808Z,1.45
2022-11-09T20:41:44.727Z,1.50
2022-11-09T20:44:13.363Z,1.40
2022-11-09T20:46:41.318Z,1.50
2022-11-09T20:49:09.662Z,1.85
2022-11-09T20:51:39.245Z,1.90
2022-11-09T20:54:07.915Z,2.03
2022-11-09T20:56:37.698Z,2.33
2022-11-09T20:59:06.059Z,2.67
2022-11-09T21:01:34.027Z,2.15
2022-11-09T21:04:02.046Z,1.73
2022-11-09T21:06:30.094Z,1.85
2022-11-09T21:09:00.915Z,1.65
2022-11-09T21:11:35.485Z,1.90
2022-11-09T21:14:03.727Z,1.30
2022-11-09T21:16:31.644Z,1.40
2022-11-09T21:18:59.533Z,1.08
2022-11-09T21:21:29.773Z,0.95
2022-11-09T21:24:18.679Z,0.80
2022-11-09T21:27:04.184Z,2.15
2022-11-09T21:29:49.698Z,0.95
2022-11-09T21:32:18.219Z,0.77
2022-11-09T21:34:46.249Z,1.05
2022-11-09T21:37:15.509Z,0.95
2022-11-09T21:39:45.506Z,1.13
2022-11-09T21:42:13.557Z,1.10
2022-11-09T21:44:41.778Z,0.98
2022-11-09T21:47:10.361Z,1.10
2022-11-09T21:49:38.444Z,1.30
2022-11-09T21:52:06.665Z,1.45
2022-11-09T21:54:34.725Z,1.00
2022-11-09T21:57:04.097Z,1.15
2022-11-09T21:59:32.158Z,1.10
2022-11-09T22:02:00.111Z,1.30
2022-11-09T22:04:28.151Z,1.20
2022-11-09T22:06:56.792Z,0.80
2022-11-09T22:09:24.747Z,0.80
2022-11-09T22:12:10.323Z,1.00
2022-11-09T22:14:57.306Z,1.17
2022-11-09T22:17:25.175Z,1.10
2022-11-09T22:20:10.635Z,0.88
2022-11-09T22:22:38.538Z,0.90
2022-11-09T22:25:07.747Z,0.80
2022-11-09T22:27:35.756Z,0.93
2022-11-09T22:30:05.720Z,0.90
2022-11-09T22:32:33.633Z,1.33
2022-11-09T22:35:01.513Z,1.20
2022-11-09T22:37:29.369Z,1.20
2022-11-09T22:39:57.251Z,1.10
2022-11-09T22:42:25.159Z,1.65
2022-11-09T22:44:53.026Z,1.00
2022-11-09T22:47:22.288Z,1.05
2022-11-09T22:49:50.196Z,1.17
2022-11-09T22:52:18.464Z,1.00
2022-11-09T22:54:46.370Z,1.13
2022-11-09T22:57:14.249Z,1.38
2022-11-09T22:59:42.189Z,1.00
2022-11-09T23:02:10.058Z,1.30
2022-11-09T23:04:39.253Z,1.20
2022-11-09T23:07:07.169Z,1.70
2022-11-09T23:09:35.143Z,1.17
2022-11-09T23:12:03.030Z,1.05
2022-11-09T23:14:47.571Z,0.90
2022-11-09T23:17:29.380Z,1.15
2022-11-09T23:19:58.620Z,1.10
2022-11-09T23:22:26.486Z,1.25
2022-11-09T23:25:11.836Z,1.08
2022-11-09T23:27:39.855Z,1.63
2022-11-09T23:30:08.468Z,0.98
2022-11-09T23:32:36.374Z,1.30
2022-11-09T23:35:06.446Z,1.35
2022-11-09T23:37:34.322Z,1.38
2022-11-09T23:40:02.217Z,1.25
2022-11-09T23:42:30.087Z,1.17
2022-11-09T23:44:57.992Z,1.10
2022-11-09T23:47:25.901Z,1.30
2022-11-09T23:49:53.872Z,1.33
2022-11-09T23:52:23.140Z,1.40
2022-11-09T23:54:51.056Z,1.88
2022-11-09T23:57:18.917Z,1.27
2022-11-09T23:59:46.814Z,1.15
